Latest Weather Observations for Cape Sorell

IDT60801

Issued at 10:35 pm EST Wednesday 23 April 2014 (issued every 30 minutes, with the page automatically refreshed every 10 minutes)

About weather observations | Map of weather stations | Latest weather observations for TAS | Other Formats
Station Details ID: 097000 Name: CAPE SORELL Lat: -42.20 Lon: 145.17 Height: 19.3 m
Data from the previous 72 hours. | See also: Recent months at Cape Sorell
Date/Time
EST
Temp
°C
App
Temp
°C
Dew
Point
Rel
Hum
%
Delta-T
°C
Wind Press
QNH
hPa
Press
MSL
hPa
Rain
since 9 am
mm
Dir
 
Spd
km/h
Gust
km/h
Spd
kts
Gust
kts
23/10:30pm 13.4 5.1 12.6 95 0.4 N 48 65 26 35 1003.7 - 3.4
23/10:00pm 13.7 5.1 12.8 94 0.5 N 50 65 27 35 1004.4 1004.4 2.4
23/09:30pm 13.4 4.6 12.3 93 0.6 N 50 61 27 33 1005.2 - 2.4
23/09:00pm 14.2 5.2 11.5 84 1.4 N 50 59 27 32 1005.1 1005.1 0.4
23/08:30pm 13.8 5.8 11.1 84 1.4 N 44 56 24 30 1005.8 - 0.4
23/08:00pm 14.3 6.9 11.3 82 1.6 N 41 50 22 27 1006.4 1006.4 0.4
23/07:30pm 14.4 6.4 11.0 80 1.8 N 44 52 24 28 1006.6 - 0.2
23/07:00pm 14.2 6.1 10.6 79 1.9 N 44 56 24 30 1006.7 1006.7 0.2
23/06:30pm 14.9 7.0 10.7 76 2.2 N 43 52 23 28 1007.2 - 0.2
23/06:00pm 14.9 6.8 10.1 73 2.5 N 43 52 23 28 1007.3 1007.3 0.2
23/05:30pm 14.9 6.7 9.7 71 2.7 N 43 54 23 29 1007.5 - 0.2
23/05:00pm 15.1 7.0 8.8 66 3.2 N 41 52 22 28 1007.8 1007.8 0.2
23/04:30pm 15.0 7.4 8.9 67 3.1 N 39 56 21 30 1008.2 - 0.2
23/04:00pm 15.1 8.2 8.8 66 3.2 N 35 48 19 26 1008.5 1008.5 0.2
23/03:30pm 15.1 8.1 8.6 65 3.3 N 35 50 19 27 1008.6 - 0.2
23/03:00pm 15.5 8.3 9.2 66 3.2 NNW 37 48 20 26 1008.9 1008.9 0.2
23/02:30pm 15.2 6.9 10.0 71 2.7 N 44 54 24 29 1008.9 - 0.2
23/02:00pm 15.5 8.3 9.0 65 3.3 N 37 48 20 26 1009.5 1009.5 0.2
23/01:30pm 15.1 7.2 9.2 68 3.0 N 41 48 22 26 1009.9 - 0.2
23/01:00pm 14.9 6.5 8.8 67 3.1 N 43 52 23 28 1010.4 1010.4 0.2
23/12:30pm 14.7 6.3 8.9 68 3.0 N 43 50 23 27 1010.9 - 0.2
23/12:00pm 14.7 7.3 9.7 72 2.6 N 39 48 21 26 1011.4 1011.4 0.2
23/11:30am 14.3 8.1 9.9 75 2.3 N 33 44 18 24 1011.9 - 0.2
23/11:00am 14.0 7.7 9.6 75 2.3 N 33 41 18 22 1012.3 1012.3 0.2
23/10:30am 13.7 8.4 9.9 78 2.0 N 28 37 15 20 1012.6 - 0.2
23/10:00am 14.1 7.9 9.9 76 2.2 N 33 41 18 22 1012.8 1012.8 0.2
23/09:30am 13.1 7.8 9.9 81 1.6 NNE 28 33 15 18 1013.1 - 0.2
23/09:00am 12.7 6.5 9.9 83 1.4 N 33 37 18 20 1013.0 1013.0 0.6
23/08:30am 12.3 6.7 10.0 86 1.2 NNE 30 39 16 21 1013.2 - 0.6
23/08:00am 11.8 6.9 9.9 88 1.0 NNE 26 30 14 16 1013.3 1013.3 0.6
23/07:30am 11.6 6.7 10.0 90 0.8 NNE 26 32 14 17 1013.3 - 0.6
23/07:00am 12.3 7.4 9.9 85 1.2 NNE 26 33 14 18 1013.1 1013.1 0.6
23/06:30am 13.6 9.3 9.5 76 2.1 N 22 30 12 16 1013.1 - 0.6
23/06:00am 13.2 9.9 8.1 71 2.5 N 15 20 8 11 1013.3 1013.3 0.6
23/05:30am 12.4 9.0 7.5 72 2.4 NW 15 20 8 11 1013.6 - 0.6
23/05:00am 12.6 9.1 7.1 69 2.7 NNW 15 19 8 10 1013.7 1013.7 0.6
23/04:30am 12.4 8.4 9.2 81 1.6 NW 20 30 11 16 1013.6 - 0.6
23/04:00am 11.9 8.5 9.3 84 1.3 W 17 22 9 12 1013.6 1013.6 0.6
23/03:30am 11.9 7.3 9.8 87 1.1 WSW 24 30 13 16 1013.6 - 0.6
23/03:08am 12.5 5.5 9.9 84 1.3 W 37 52 20 28 1013.2 - 0.4
23/03:00am 12.8 8.8 9.1 78 1.9 NW 20 28 11 15 1013.6 1013.6 0.4
23/02:30am 12.1 10.7 8.9 81 1.6 N 6 11 3 6 1013.7 - 0.4
23/02:00am 11.7 10.1 8.7 82 1.5 W 7 11 4 6 1014.1 1014.1 0.4
23/01:30am 11.8 9.6 9.2 84 1.3 WSW 11 15 6 8 1014.1 - 0.4
23/01:00am 12.0 10.6 9.6 85 1.2 W 7 13 4 7 1014.1 1014.1 0.4
23/12:30am 12.2 10.4 9.4 83 1.4 W 9 13 5 7 1014.2 - 0.4
23/12:00am 12.6 9.1 8.9 78 1.9 WNW 17 22 9 12 1014.3 1014.3 0.2
 
Date/Time
EST
Temp
°C
App
Temp
°C
Dew
Point
Rel
Hum
%
Delta-T
°C
Wind Press
QNH
hPa
Press
MSL
hPa
Rain
since 9 am
mm
Dir
 
Spd
km/h
Gust
km/h
Spd
kts
Gust
kts
22/11:30pm 13.6 9.9 9.5 76 2.1 W 19 24 10 13 1014.3 - 0.2
22/11:00pm 13.4 9.8 8.5 72 2.4 W 17 26 9 14 1014.3 1014.3 0.2
22/10:30pm 13.4 9.5 8.7 73 2.4 W 19 24 10 13 1014.3 - 0.2
22/10:00pm 13.5 9.6 8.8 73 2.4 W 19 24 10 13 1014.3 1014.3 0.2
22/09:30pm 13.2 8.4 8.9 75 2.2 W 24 33 13 18 1014.2 - 0.2
22/09:00pm 12.9 7.5 9.5 80 1.7 WSW 28 32 15 17 1014.1 1014.1 0.2
22/08:30pm 12.9 6.5 9.5 80 1.7 WSW 33 41 18 22 1013.8 - 0.2
22/08:00pm 13.6 7.1 8.2 70 2.7 WSW 32 39 17 21 1013.4 1013.4 0.2
22/07:30pm 13.4 8.5 8.5 72 2.5 W 24 33 13 18 1013.4 - 0.2
22/07:00pm 13.5 9.2 9.4 76 2.1 W 22 33 12 18 1013.1 1013.1 0.2
22/06:30pm 13.3 7.9 9.5 78 1.9 W 28 37 15 20 1012.7 - 0.2
22/06:00pm 13.1 7.5 10.1 82 1.5 WNW 30 37 16 20 1012.2 1012.2 0.2
22/05:30pm 13.0 8.4 11.1 88 1.0 WNW 26 35 14 19 1012.0 - 0.2
22/05:00pm 12.9 6.8 9.9 82 1.5 WNW 32 37 17 20 1012.1 1012.1 0.2
22/04:30pm 14.5 8.8 8.5 67 3.0 WNW 28 39 15 21 1011.7 - 0.0
22/04:00pm 15.3 9.2 8.1 62 3.6 NW 30 41 16 22 1011.6 1011.6 0.0
22/03:30pm 15.5 9.0 8.3 62 3.6 NW 32 37 17 20 1011.6 - 0.0
22/03:00pm 15.6 10.0 8.6 63 3.6 NW 28 37 15 20 1011.4 1011.4 0.0
22/02:30pm 16.3 11.0 8.5 60 4.0 WNW 26 37 14 20 1011.4 - 0.0
22/02:00pm 15.9 10.9 7.9 59 4.0 WNW 24 30 13 16 1011.2 1011.2 0.0
22/01:30pm 16.2 11.3 8.4 60 4.0 WNW 24 33 13 18 1011.2 - 0.0
22/01:00pm 15.7 10.7 8.2 61 3.8 W 24 33 13 18 1011.1 1011.1 0.0
22/12:30pm 14.8 9.0 7.8 63 3.5 WNW 28 37 15 20 1011.0 - 0.0
22/12:00pm 14.9 10.3 8.2 64 3.4 W 22 32 12 17 1011.0 1011.0 0.0
22/11:30am 14.0 8.9 7.8 66 3.1 WSW 24 32 13 17 1010.9 - 0.0
22/11:00am 13.9 7.3 8.7 71 2.6 WSW 33 39 18 21 1010.4 1010.4 0.0
22/10:30am 13.9 7.6 8.9 72 2.5 WSW 32 37 17 20 1010.1 - 0.0
22/10:00am 13.8 6.9 8.8 72 2.5 WSW 35 41 19 22 1009.7 1009.7 0.0
22/09:30am 13.4 5.5 9.3 76 2.1 WSW 41 48 22 26 1009.3 - 0.0
22/09:00am 13.2 5.3 10.7 85 1.3 WSW 43 52 23 28 1008.8 1008.8 4.0
22/08:30am 12.5 4.5 11.2 92 0.7 WSW 44 54 24 29 1008.2 - 4.0
22/08:00am 13.7 5.5 11.8 88 1.0 WSW 46 54 25 29 1007.3 1007.3 3.8
22/07:56am 14.4 6.6 11.9 85 1.3 WSW 44 54 24 29 1007.0 - 3.8
22/07:48am 14.5 9.4 11.8 84 1.5 NW 30 48 16 26 1007.5 - 3.8
22/07:30am 14.2 9.1 11.9 86 1.2 NW 30 43 16 23 1007.0 - 3.8
22/07:00am 14.6 9.8 12.8 89 1.0 NW 30 43 16 23 1006.4 1006.4 3.8
22/06:30am 14.8 10.3 12.5 86 1.3 WNW 28 37 15 20 1006.3 - 3.8
22/06:00am 15.2 10.3 12.7 85 1.4 WNW 30 39 16 21 1006.1 1006.1 3.6
22/05:30am 15.3 11.6 12.8 85 1.4 NW 24 32 13 17 1006.1 - 3.6
22/05:00am 15.1 11.1 13.0 87 1.2 WNW 26 37 14 20 1005.7 1005.7 3.6
22/04:30am 15.5 11.0 13.7 89 1.0 WNW 30 37 16 20 1005.5 - 3.6
22/04:00am 15.5 10.5 13.9 90 0.9 WNW 33 41 18 22 1005.1 1005.1 3.6
22/03:30am 15.7 10.4 14.2 91 0.9 WNW 35 41 19 22 1004.7 - 3.6
22/03:00am 16.0 10.9 14.9 93 0.6 NW 35 44 19 24 1004.4 1004.4 3.6
22/02:46am 16.4 12.9 15.4 94 0.6 NW 28 46 15 25 1004.5 - 3.6
22/02:30am 16.5 12.6 15.5 94 0.6 NW 30 46 16 25 1004.4 - 3.6
22/02:00am 16.7 11.4 15.4 92 0.8 NNW 37 50 20 27 1004.2 1004.2 3.6
22/01:30am 16.6 11.1 14.8 89 1.0 NNW 37 48 20 26 1003.9 - 3.6
22/01:26am 16.8 11.3 14.6 87 1.3 NNW 37 41 20 22 1004.0 - 3.6
22/01:00am 17.0 7.7 14.1 83 1.7 N 56 76 30 41 1003.5 1003.5 3.4
22/12:49am 16.8 8.2 14.1 84 1.5 N 52 72 28 39 1003.5 - 3.4
22/12:30am 17.0 9.1 13.7 81 1.9 N 48 65 26 35 1003.7 - 3.4
22/12:00am 17.4 7.5 13.1 76 2.4 N 57 72 31 39 1003.3 1003.3 3.2
 
Date/Time
EST
Temp
°C
App
Temp
°C
Dew
Point
Rel
Hum
%
Delta-T
°C
Wind Press
QNH
hPa
Press
MSL
hPa
Rain
since 9 am
mm
Dir
 
Spd
km/h
Gust
km/h
Spd
kts
Gust
kts
21/11:30pm 17.3 7.0 13.0 76 2.4 N 59 70 32 38 1003.0 - 3.2
21/11:00pm 17.3 7.5 13.2 77 2.3 N 57 80 31 43 1002.7 1002.7 3.2
21/10:57pm 16.6 7.8 13.3 81 1.8 N 52 80 28 43 1002.9 - 3.2
21/10:30pm 15.8 6.7 12.4 80 1.9 NNE 52 61 28 33 1003.3 - 3.2
21/10:00pm 15.6 5.6 12.2 80 1.9 NNE 56 65 30 35 1003.8 1003.8 3.2
21/09:30pm 15.5 4.9 11.9 79 2.0 NNE 59 72 32 39 1003.9 - 3.2
21/09:21pm 15.1 5.1 12.1 82 1.6 NNE 56 69 30 37 1004.1 - 3.2
21/09:06pm 14.1 8.6 11.8 86 1.2 NNE 32 50 17 27 1005.3 - 3.0
21/09:00pm 13.6 9.9 11.5 87 1.1 NE 22 35 12 19 1005.6 1005.6 3.0
21/08:30pm 12.8 9.1 11.5 92 0.7 NE 22 32 12 17 1006.5 - 3.0
21/08:00pm 11.9 8.7 11.1 95 0.4 ENE 19 24 10 13 1007.2 1007.2 3.0
21/07:30pm 12.1 9.7 11.3 95 0.4 NE 15 22 8 12 1007.9 - 3.0
21/07:00pm 12.2 7.3 11.3 94 0.5 NE 28 33 15 18 1008.5 1008.5 2.8
21/06:30pm 12.2 6.2 10.9 92 0.7 NNE 33 39 18 21 1008.9 - 2.6
21/06:00pm 12.1 7.4 10.7 91 0.7 NNE 26 35 14 19 1009.4 1009.4 1.6
21/05:30pm 12.0 8.4 10.7 92 0.7 NNE 20 22 11 12 1009.6 - 1.4
21/05:00pm 11.2 8.7 9.8 91 0.7 ENE 13 17 7 9 1010.2 1010.2 0.8
21/04:30pm 10.9 7.8 9.0 88 0.9 E 15 19 8 10 1010.1 - 0.4
21/04:00pm 11.9 8.4 8.9 82 1.5 ENE 17 22 9 12 1010.8 1010.8 0.0
21/03:30pm 12.4 10.4 8.7 78 1.8 NE 9 15 5 8 1011.7 - 0.0
21/03:00pm 12.4 9.6 8.5 77 1.9 NE 13 20 7 11 1012.0 1012.0 0.0
21/02:30pm 12.4 8.9 8.7 78 1.8 NE 17 20 9 11 1012.2 - 0.0
21/02:00pm 12.1 8.1 8.4 78 1.8 NNE 19 22 10 12 1012.5 1012.5 0.0
21/01:30pm 11.9 7.3 8.0 77 1.9 NNE 22 26 12 14 1012.9 - 0.0
21/01:00pm 11.7 6.8 7.0 73 2.2 NNE 22 28 12 15 1013.5 1013.5 0.0
21/12:30pm 11.3 6.8 6.2 71 2.4 NE 19 26 10 14 1014.2 - 0.0
21/12:00pm 11.3 7.1 5.6 68 2.6 NE 17 22 9 12 1015.0 1015.0 0.0
21/11:30am 11.4 8.8 6.3 71 2.4 ENE 9 15 5 8 1015.6 - 0.0
21/11:00am 10.9 8.2 5.7 70 2.4 ENE 9 15 5 8 1016.0 1015.9 0.0
21/10:30am 10.8 7.6 5.3 69 2.5 E 11 17 6 9 1016.4 - 0.0
21/10:00am 10.7 6.6 4.6 66 2.7 ENE 15 19 8 10 1016.7 1016.7 0.0
21/09:30am 11.0 7.0 4.9 66 2.8 E 15 19 8 10 1016.9 - 0.0
21/09:00am 10.0 6.8 5.0 71 2.3 ENE 11 17 6 9 1017.2 1017.2 2.8
21/08:30am 8.8 4.7 4.6 75 1.9 ENE 15 20 8 11 1017.4 - 2.8
21/08:00am 8.7 5.2 5.3 79 1.5 ENE 13 19 7 10 1017.5 1017.5 2.8
21/07:30am 8.2 3.7 4.4 77 1.7 ENE 17 24 9 13 1017.1 - 2.8
21/07:00am 8.0 4.0 4.8 80 1.4 ENE 15 19 8 10 1017.4 1017.4 2.8
21/06:30am 7.5 3.5 4.8 83 1.2 ENE 15 20 8 11 1017.0 - 2.8
21/06:00am 7.7 3.3 4.8 82 1.3 ENE 17 19 9 10 1016.9 1016.9 2.8
21/05:30am 8.2 4.6 5.1 81 1.4 ENE 13 17 7 9 1016.8 - 2.8
21/05:00am 8.9 5.8 5.5 79 1.5 ENE 11 15 6 8 1016.7 1016.7 2.8
21/04:30am 8.7 5.6 5.6 81 1.4 ENE 11 13 6 7 1016.6 - 2.8
21/04:00am 8.8 5.7 5.7 81 1.4 ENE 11 13 6 7 1016.4 1016.4 2.8
21/03:30am 9.2 6.7 6.5 83 1.3 ENE 9 13 5 7 1016.5 - 2.8
21/03:00am 8.8 5.8 5.9 82 1.3 E 11 11 6 6 1016.6 1016.6 2.8
21/02:30am 9.2 6.2 6.1 81 1.4 E 11 15 6 8 1016.5 - 2.8
21/02:00am 9.7 6.2 5.3 74 2.0 E 13 15 7 8 1016.7 1016.7 2.8
21/01:30am 9.7 6.3 2.1 59 3.2 ESE 9 13 5 7 1016.7 - 2.8
21/01:00am 10.6 7.6 2.2 56 3.6 WSW 7 11 4 6 1016.5 1016.5 2.8
21/12:30am 10.8 6.8 2.6 57 3.5 SW 13 15 7 8 1016.5 - 2.8
21/12:00am 10.6 7.1 3.6 62 3.1 SW 11 15 6 8 1016.4 1016.4 2.8
 
Date/Time
EST
Temp
°C
App
Temp
°C
Dew
Point
Rel
Hum
%
Delta-T
°C
Wind Press
QNH
hPa
Press
MSL
hPa
Rain
since 9 am
mm
Dir
 
Spd
km/h
Gust
km/h
Spd
kts
Gust
kts
20/11:30pm 10.9 5.9 3.5 60 3.3 WSW 19 24 10 13 1016.1 - 2.8
20/11:00pm 11.2 5.8 4.4 63 3.1 SW 22 28 12 15 1016.2 1016.1 2.8

Other Formats:

Comma delimited format used in spreadsheet applications
http://www.bom.gov.au/fwo/IDT60801/IDT60801.94974.axf

JavaScript Object Notation format (JSON) in row-major order
http://www.bom.gov.au/fwo/IDT60801/IDT60801.94974.json